Time;durP1;ratioP1;P1;durP2;ratioP2;P2;SDS_P1;SDS_P2;PMS_P1;PMS_P2;Temp;Humidity;BMP_temperature;BMP_pressure;BME280_temperature;BME280_humidity;BME280_pressure;Samples;Min_cycle;Max_cycle;Signal;HPM_P1;HPM_P2
2021/01/18 00:01:36;;;;;;;11.82;8.43;;;-1.80;72.70;;;;;;5057230;28;20313;-69
2021/01/18 00:04:03;;;;;;;12.05;8.18;;;-1.80;72.80;;;;;;5057277;28;20433;-69
2021/01/18 00:06:28;;;;;;;11.95;8.18;;;-1.80;72.80;;;;;;5056820;28;20017;-70
2021/01/18 00:08:54;;;;;;;13.32;8.88;;;-1.80;73.10;;;;;;5056460;28;20043;-69
2021/01/18 00:11:21;;;;;;;13.30;8.93;;;-1.80;72.40;;;;;;5056057;28;20025;-69
2021/01/18 00:13:48;;;;;;;11.75;8.23;;;-1.80;72.30;;;;;;5057068;28;20421;-69
2021/01/18 00:16:21;;;;;;;12.73;8.00;;;-1.80;72.50;;;;;;5057246;28;20142;-69
2021/01/18 00:18:47;;;;;;;12.90;7.68;;;-1.80;72.30;;;;;;5056844;28;20029;-69
2021/01/18 00:21:14;;;;;;;11.38;7.95;;;-1.80;71.40;;;;;;5057056;28;20017;-69
2021/01/18 00:23:41;;;;;;;10.75;6.90;;;-1.70;71.50;;;;;;5056898;28;20025;-69
2021/01/18 00:26:07;;;;;;;12.60;8.25;;;-1.70;71.40;;;;;;5057078;28;20057;-70
2021/01/18 00:28:34;;;;;;;14.52;7.35;;;-1.70;71.30;;;;;;5056827;28;20041;-69
2021/01/18 00:31:01;;;;;;;9.95;7.50;;;-1.80;71.20;;;;;;5056780;28;20472;-69
2021/01/18 00:33:27;;;;;;;13.93;8.50;;;-1.80;71.40;;;;;;5056724;28;20087;-69
2021/01/18 00:35:53;;;;;;;10.43;7.72;;;-1.80;71.50;;;;;;5056734;28;20029;-69
2021/01/18 00:38:19;;;;;;;12.25;8.32;;;-1.80;71.80;;;;;;5056580;28;20103;-69
2021/01/18 00:40:44;;;;;;;14.48;9.00;;;-1.80;71.70;;;;;;5056647;28;20035;-69
2021/01/18 00:43:10;;;;;;;12.15;8.60;;;-1.80;71.50;;;;;;5056588;28;20348;-69
2021/01/18 00:45:36;;;;;;;12.55;8.07;;;-1.80;71.90;;;;;;5056638;28;20021;-69
2021/01/18 00:48:01;;;;;;;11.40;7.65;;;-1.90;72.40;;;;;;5056956;28;20032;-69
2021/01/18 00:50:30;;;;;;;11.52;6.38;;;-1.90;72.20;;;;;;5056508;28;20082;-69
2021/01/18 00:52:56;;;;;;;10.20;6.95;;;-1.90;72.80;;;;;;5056533;28;20021;-69
2021/01/18 00:55:23;;;;;;;16.02;8.30;;;-2.00;73.90;;;;;;5056737;28;20028;-69
2021/01/18 00:57:49;;;;;;;17.63;10.80;;;-2.10;73.20;;;;;;5056444;28;20078;-69
2021/01/18 01:00:29;;;;;;;18.45;11.27;;;-2.10;72.50;;;;;;5056414;28;20029;-69
2021/01/18 01:02:55;;;;;;;19.33;11.68;;;-1.90;71.70;;;;;;5056807;28;20482;-69
2021/01/18 01:05:23;;;;;;;16.17;11.10;;;-1.70;71.20;;;;;;5056672;28;20059;-69
2021/01/18 01:07:51;;;;;;;15.32;11.13;;;-1.70;70.90;;;;;;5056616;28;20029;-69
2021/01/18 01:10:19;;;;;;;16.88;10.75;;;-1.60;70.70;;;;;;5056358;28;20473;-69
2021/01/18 01:12:45;;;;;;;17.80;12.15;;;-1.60;71.90;;;;;;5056312;28;20324;-69
2021/01/18 01:15:12;;;;;;;16.67;11.38;;;-1.70;72.70;;;;;;5056339;28;20108;-69
2021/01/18 01:17:41;;;;;;;15.77;11.30;;;-1.70;73.40;;;;;;5056193;28;20062;-69
2021/01/18 01:20:18;;;;;;;16.25;10.80;;;-1.70;73.60;;;;;;5059712;28;20110;-69
2021/01/18 01:22:43;;;;;;;16.77;11.32;;;-1.80;73.20;;;;;;5060563;28;20021;-69
2021/01/18 01:25:10;;;;;;;16.67;10.98;;;-1.80;73.90;;;;;;5060048;28;20048;-69
2021/01/18 01:27:36;;;;;;;13.65;10.02;;;-1.80;73.20;;;;;;5059908;28;20132;-69
2021/01/18 01:30:05;;;;;;;15.70;10.98;;;-1.80;73.20;;;;;;5060116;28;20056;-69
2021/01/18 01:32:30;;;;;;;17.83;11.02;;;-1.90;72.90;;;;;;5060313;28;20017;-69
2021/01/18 01:34:56;;;;;;;16.27;10.32;;;-2.00;73.70;;;;;;5059945;28;20051;-69
2021/01/18 01:37:22;;;;;;;16.45;10.77;;;-1.90;72.20;;;;;;5059948;28;20439;-69
2021/01/18 01:39:47;;;;;;;18.02;10.35;;;-1.90;71.60;;;;;;5059824;28;20036;-69
2021/01/18 01:42:23;;;;;;;19.48;12.27;;;-1.80;71.20;;;;;;5060179;28;20040;-69
2021/01/18 01:44:51;;;;;;;17.58;12.75;;;-1.70;70.60;;;;;;5058739;28;20029;-69
2021/01/18 01:47:29;;;;;;;15.57;10.93;;;-1.60;70.20;;;;;;5060128;28;20312;-69
2021/01/18 01:49:56;;;;;;;16.08;11.27;;;-1.50;69.80;;;;;;5059769;28;20048;-69
2021/01/18 01:52:24;;;;;;;17.08;10.98;;;-1.60;69.90;;;;;;5059646;28;20049;-69
2021/01/18 01:54:58;;;;;;;19.00;12.38;;;-1.70;69.90;;;;;;5059702;28;20479;-69
2021/01/18 01:57:24;;;;;;;14.50;10.15;;;-1.70;70.30;;;;;;5059750;28;20036;-69
2021/01/18 01:59:52;;;;;;;18.25;11.38;;;-1.90;71.20;;;;;;5059517;28;20036;-69
2021/01/18 02:02:18;;;;;;;14.85;10.02;;;-2.00;71.60;;;;;;5059811;28;20024;-69
2021/01/18 02:04:47;;;;;;;13.23;9.25;;;-2.10;72.10;;;;;;5059660;28;20044;-69
2021/01/18 02:07:27;;;;;;;13.90;8.85;;;-2.30;73.10;;;;;;5059713;28;20105;-69
2021/01/18 02:09:53;;;;;;;12.13;8.48;;;-2.40;74.20;;;;;;5059398;28;20490;-69
2021/01/18 02:12:20;;;;;;;11.02;8.30;;;-2.50;74.10;;;;;;5058291;28;20028;-69
2021/01/18 02:15:00;;;;;;;12.20;8.50;;;-2.50;73.70;;;;;;5059197;28;20021;-69
2021/01/18 02:17:59;;;;;;;14.10;8.90;;;-2.60;74.70;;;;;;5059480;28;20021;-69
2021/01/18 02:20:53;;;;;;;15.52;9.20;;;-2.70;75.70;;;;;;5059219;28;20032;-69
2021/01/18 02:23:38;;;;;;;14.70;10.38;;;-2.90;75.30;;;;;;5059114;28;20021;-69
2021/01/18 02:26:15;;;;;;;15.70;9.88;;;-3.00;75.40;;;;;;5059456;28;20039;-69
2021/01/18 02:29:03;;;;;;;14.90;9.85;;;-2.90;76.00;;;;;;5059078;28;20099;-69
2021/01/18 02:31:42;;;;;;;15.57;9.88;;;-2.80;75.20;;;;;;5058468;28;20052;-69
2021/01/18 02:34:46;;;;;;;15.23;9.27;;;-2.80;75.40;;;;;;5059004;28;20203;-69
2021/01/18 02:37:33;;;;;;;14.55;8.93;;;-2.80;74.90;;;;;;5056890;28;20050;-69
2021/01/18 02:40:11;;;;;;;16.38;8.75;;;-2.80;74.30;;;;;;5058861;28;20033;-69
2021/01/18 02:42:53;;;;;;;15.50;9.27;;;-2.80;74.60;;;;;;5058904;28;20021;-69
2021/01/18 02:45:22;;;;;;;14.02;8.88;;;-2.90;75.30;;;;;;5058763;28;20066;-69
2021/01/18 02:47:49;;;;;;;15.55;9.13;;;-2.90;75.40;;;;;;5057892;28;20298;-69
2021/01/18 02:50:15;;;;;;;13.90;9.57;;;-3.00;75.60;;;;;;5057544;28;20032;-69
2021/01/18 02:52:43;;;;;;;14.05;9.75;;;-3.00;75.30;;;;;;5057527;28;20025;-69
2021/01/18 02:55:11;;;;;;;14.38;9.70;;;-3.00;75.30;;;;;;5058431;28;20033;-69
2021/01/18 02:57:40;;;;;;;15.48;9.90;;;-3.10;75.20;;;;;;5058382;28;20033;-69
2021/01/18 03:00:11;;;;;;;13.80;9.40;;;-3.10;76.10;;;;;;5058654;28;20368;-69
2021/01/18 03:02:46;;;;;;;16.42;10.25;;;-3.10;76.50;;;;;;5058353;28;20104;-69
2021/01/18 03:05:32;;;;;;;15.38;8.88;;;-3.10;76.00;;;;;;5058428;28;20027;-69
2021/01/18 03:08:01;;;;;;;16.75;8.65;;;-3.10;76.50;;;;;;5058362;28;20429;-69
2021/01/18 03:10:31;;;;;;;17.88;9.57;;;-3.20;76.70;;;;;;5058238;28;20029;-69
2021/01/18 03:13:04;;;;;;;14.85;9.10;;;-3.20;76.80;;;;;;5058172;28;20021;-69
2021/01/18 03:15:36;;;;;;;17.38;10.18;;;-3.20;76.70;;;;;;5058207;28;20216;-69
2021/01/18 03:18:03;;;;;;;16.77;9.25;;;-3.30;77.30;;;;;;5058022;28;20111;-69
2021/01/18 03:20:32;;;;;;;16.02;9.98;;;-3.30;77.80;;;;;;5057967;28;20028;-69
2021/01/18 03:23:03;;;;;;;16.95;11.27;;;-3.30;78.20;;;;;;5058017;28;20025;-69
2021/01/18 03:25:29;;;;;;;14.40;10.70;;;-3.30;76.70;;;;;;5058182;28;20025;-69
2021/01/18 03:27:58;;;;;;;15.32;10.35;;;-3.30;76.40;;;;;;5057763;28;20144;-69
2021/01/18 03:30:25;;;;;;;19.23;10.82;;;-3.30;76.30;;;;;;5057927;28;20036;-69
2021/01/18 03:32:52;;;;;;;12.40;8.75;;;-3.20;76.10;;;;;;5058096;28;20033;-69
2021/01/18 03:35:19;;;;;;;13.65;8.95;;;-3.20;76.10;;;;;;5057849;28;20048;-69
2021/01/18 03:37:53;;;;;;;12.95;8.27;;;-3.20;76.00;;;;;;5057666;28;20068;-69
2021/01/18 03:40:20;;;;;;;13.50;8.32;;;-3.20;76.20;;;;;;5057659;28;20029;-69
2021/01/18 03:43:12;;;;;;;14.77;9.32;;;-3.20;76.20;;;;;;5057391;28;20033;-69
2021/01/18 03:45:40;;;;;;;13.07;8.27;;;-3.20;75.80;;;;;;5057377;28;20021;-69
2021/01/18 03:48:07;;;;;;;10.63;7.72;;;-3.20;75.90;;;;;;5056445;28;20078;-69
2021/01/18 03:50:34;;;;;;;12.70;8.18;;;-3.30;76.00;;;;;;5057657;28;20031;-69
2021/01/18 03:53:00;;;;;;;12.77;7.60;;;-3.30;75.80;;;;;;5057436;28;20146;-69
2021/01/18 03:55:26;;;;;;;14.23;8.90;;;-3.20;75.90;;;;;;5057560;28;20048;-69
2021/01/18 03:57:54;;;;;;;14.63;9.60;;;-3.20;75.90;;;;;;5056257;28;20072;-69
2021/01/18 04:00:23;;;;;;;16.13;9.95;;;-3.20;75.80;;;;;;5057292;28;20028;-69
2021/01/18 04:02:51;;;;;;;18.02;10.48;;;-3.20;76.20;;;;;;5057471;28;20448;-69
2021/01/18 04:05:17;;;;;;;15.00;9.10;;;-3.20;76.20;;;;;;5057285;28;20108;-70
2021/01/18 04:07:43;;;;;;;14.90;9.85;;;-3.20;75.90;;;;;;5057133;28;20425;-69
2021/01/18 04:10:11;;;;;;;14.75;9.13;;;-3.20;77.00;;;;;;5057092;28;20029;-69
2021/01/18 04:12:44;;;;;;;16.52;9.90;;;-3.30;77.00;;;;;;5057042;28;20029;-69
2021/01/18 04:15:11;;;;;;;15.75;9.95;;;-3.30;76.60;;;;;;5056965;28;20421;-69
2021/01/18 04:17:45;;;;;;;13.60;8.70;;;-3.20;76.10;;;;;;5056854;28;20029;-69
2021/01/18 04:20:11;;;;;;;13.70;9.05;;;-3.20;76.60;;;;;;5057195;28;20424;-69
2021/01/18 04:22:44;;;;;;;12.82;8.32;;;-3.30;77.00;;;;;;5056838;28;20401;-69
2021/01/18 04:25:10;;;;;;;16.08;9.20;;;-3.30;77.00;;;;;;5056918;28;20413;-69
2021/01/18 04:27:36;;;;;;;13.57;7.90;;;-3.30;76.90;;;;;;5056629;28;20437;-70
2021/01/18 04:30:04;;;;;;;12.75;8.45;;;-3.30;77.20;;;;;;5056787;28;20036;-69
2021/01/18 04:32:29;;;;;;;14.60;9.00;;;-3.30;77.00;;;;;;5056774;28;20037;-70
2021/01/18 04:34:55;;;;;;;14.38;9.90;;;-3.30;76.80;;;;;;5056663;28;20025;-69
2021/01/18 04:37:20;;;;;;;16.85;9.43;;;-3.30;76.40;;;;;;5056645;28;20423;-69
2021/01/18 04:39:46;;;;;;;13.88;9.02;;;-3.30;76.40;;;;;;5056924;28;20303;-69
2021/01/18 04:42:12;;;;;;;17.42;9.68;;;-3.20;76.70;;;;;;5056629;28;20108;-69
2021/01/18 04:44:38;;;;;;;15.00;8.98;;;-3.20;76.60;;;;;;5056523;28;20025;-69
2021/01/18 04:47:09;;;;;;;17.38;9.70;;;-3.20;76.60;;;;;;5056667;28;20317;-69
2021/01/18 04:49:35;;;;;;;17.70;9.90;;;-3.20;76.90;;;;;;5055568;28;20048;-69
2021/01/18 04:52:06;;;;;;;16.27;9.00;;;-3.10;76.80;;;;;;5056505;28;20032;-69
2021/01/18 04:54:38;;;;;;;15.50;8.88;;;-3.20;77.00;;;;;;5055929;28;20108;-69
2021/01/18 04:57:04;;;;;;;14.00;9.18;;;-3.10;77.00;;;;;;5056666;28;20428;-69
2021/01/18 04:59:44;;;;;;;15.93;9.27;;;-3.20;76.70;;;;;;5056448;28;20025;-69
2021/01/18 05:02:19;;;;;;;15.55;9.35;;;-3.10;76.20;;;;;;5055504;28;20115;-69
2021/01/18 05:04:50;;;;;;;11.05;7.30;;;-3.10;76.40;;;;;;5056427;28;20025;-69
2021/01/18 05:07:34;;;;;;;13.00;8.55;;;-3.10;77.20;;;;;;5056695;28;20543;-69
2021/01/18 05:10:09;;;;;;;15.50;9.52;;;-3.10;77.50;;;;;;5056473;28;20298;-69
2021/01/18 05:12:37;;;;;;;15.32;9.48;;;-3.10;77.20;;;;;;5056353;28;20029;-69
2021/01/18 05:15:10;;;;;;;14.07;9.15;;;-3.20;77.60;;;;;;5056260;28;20021;-69
2021/01/18 05:17:47;;;;;;;17.67;10.00;;;-3.20;77.30;;;;;;5056209;28;20017;-69
2021/01/18 05:20:18;;;;;;;14.02;9.00;;;-3.20;76.90;;;;;;5056364;28;20029;-69
2021/01/18 05:22:47;;;;;;;14.23;8.40;;;-3.10;76.80;;;;;;5056313;28;20413;-69
2021/01/18 05:25:14;;;;;;;17.10;10.05;;;-3.10;77.30;;;;;;5056504;28;20354;-69
2021/01/18 05:28:07;;;;;;;17.77;10.02;;;-3.10;76.70;;;;;;5056002;28;20195;-69
2021/01/18 05:30:43;;;;;;;14.68;9.32;;;-3.00;76.70;;;;;;5056276;28;20068;-69
2021/01/18 05:33:08;;;;;;;16.33;9.70;;;-3.00;76.70;;;;;;5056233;28;20029;-69
2021/01/18 05:35:36;;;;;;;14.68;9.50;;;-3.00;77.30;;;;;;5056206;28;20467;-69
2021/01/18 05:38:10;;;;;;;17.75;9.98;;;-3.00;77.40;;;;;;5056129;28;20298;-69
2021/01/18 05:40:49;;;;;;;15.73;9.27;;;-3.00;77.10;;;;;;5056120;28;20164;-69
2021/01/18 05:43:18;;;;;;;14.52;9.70;;;-3.00;76.10;;;;;;5056179;28;20058;-69
2021/01/18 05:45:48;;;;;;;16.55;9.00;;;-3.00;76.50;;;;;;5056126;28;20025;-69
2021/01/18 05:48:25;;;;;;;18.05;10.13;;;-3.00;76.90;;;;;;5056363;28;20044;-69
2021/01/18 05:50:59;;;;;;;18.63;9.35;;;-3.00;76.50;;;;;;5056050;28;20029;-69
2021/01/18 05:53:26;;;;;;;15.10;9.50;;;-3.00;76.90;;;;;;5056265;28;20029;-69
2021/01/18 05:55:52;;;;;;;14.40;10.20;;;-3.10;76.80;;;;;;5056307;28;20401;-69
2021/01/18 05:58:32;;;;;;;16.38;9.95;;;-3.10;76.80;;;;;;5055898;28;20025;-69
2021/01/18 06:00:59;;;;;;;13.93;8.82;;;-3.10;77.40;;;;;;5056195;28;20032;-69
2021/01/18 06:03:32;;;;;;;16.40;9.75;;;-3.20;76.80;;;;;;5056052;28;20029;-69
2021/01/18 06:05:59;;;;;;;14.10;9.93;;;-3.20;77.20;;;;;;5057153;28;20163;-69
2021/01/18 06:08:26;;;;;;;50.08;10.77;;;-3.20;77.20;;;;;;5059465;28;20174;-69
2021/01/18 06:11:02;;;;;;;23.38;8.98;;;-3.20;76.80;;;;;;5059379;28;20036;-69
2021/01/18 06:13:29;;;;;;;;;;;-3.20;76.80;;;;;;5059863;28;20029;-69
2021/01/18 06:16:08;;;;;;;15.55;9.32;;;-3.20;76.40;;;;;;5058196;28;19909;-69
2021/01/18 06:18:35;;;;;;;14.13;8.75;;;-3.20;76.50;;;;;;5059534;28;20149;-69
2021/01/18 06:21:03;;;;;;;15.80;9.93;;;-3.20;76.30;;;;;;5059225;28;20025;-69
2021/01/18 06:23:30;;;;;;;21.48;10.48;;;-3.20;76.30;;;;;;5059151;28;20021;-69
2021/01/18 06:25:57;;;;;;;25.45;9.35;;;-3.30;76.60;;;;;;5059427;28;20321;-69
2021/01/18 06:28:36;;;;;;;20.10;9.40;;;-3.30;76.70;;;;;;5058982;28;20076;-69
2021/01/18 06:31:06;;;;;;;15.73;9.95;;;-3.30;77.00;;;;;;5059569;28;20325;-69
2021/01/18 06:33:50;;;;;;;15.63;8.90;;;-3.40;77.50;;;;;;5059147;28;20028;-69
2021/01/18 06:36:24;;;;;;;11.77;7.97;;;-3.30;77.30;;;;;;5058942;28;20025;-69
2021/01/18 06:38:58;;;;;;;12.05;7.63;;;-3.30;77.30;;;;;;5059057;28;20032;-69
2021/01/18 06:41:29;;;;;;;14.43;9.38;;;-3.40;77.30;;;;;;5059065;28;20083;-69
2021/01/18 06:43:56;;;;;;;17.52;10.02;;;-3.40;76.90;;;;;;5059000;28;20059;-69
2021/01/18 06:46:24;;;;;;;16.55;9.13;;;-3.40;76.60;;;;;;5058699;28;20017;-69
2021/01/18 06:48:52;;;;;;;16.52;9.23;;;-3.40;77.50;;;;;;5058693;28;20421;-69
2021/01/18 06:51:20;;;;;;;14.48;9.45;;;-3.40;77.70;;;;;;5058650;28;20032;-69
2021/01/18 06:53:47;;;;;;;14.57;9.43;;;-3.40;77.40;;;;;;5058614;28;20028;-69
2021/01/18 06:56:41;;;;;;;14.52;9.05;;;-3.40;76.80;;;;;;5059024;28;20029;-69
2021/01/18 06:59:44;;;;;;;13.40;8.93;;;-3.30;77.10;;;;;;5057505;28;20045;-69
2021/01/18 07:02:27;;;;;;;12.52;8.05;;;-3.30;76.90;;;;;;5058733;28;20033;-69
2021/01/18 07:05:09;;;;;;;16.33;8.25;;;-3.30;77.20;;;;;;5058358;28;20029;-69
2021/01/18 07:07:37;;;;;;;14.63;9.05;;;-3.30;76.90;;;;;;5058416;28;20096;-69
2021/01/18 07:10:08;;;;;;;13.90;7.90;;;-3.20;77.60;;;;;;5058268;28;20317;-70
2021/01/18 07:12:33;;;;;;;15.30;9.00;;;-3.20;77.80;;;;;;5058351;28;20027;-69
2021/01/18 07:15:05;;;;;;;15.23;9.35;;;-3.10;76.70;;;;;;5058143;28;20021;-69
2021/01/18 07:17:43;;;;;;;15.57;8.63;;;-3.00;76.30;;;;;;5056538;28;20033;-69
2021/01/18 07:20:19;;;;;;;13.63;9.13;;;-2.90;76.40;;;;;;5058332;28;20409;-69
2021/01/18 07:23:15;;;;;;;13.85;9.43;;;-2.80;76.70;;;;;;5058285;28;20052;-69
2021/01/18 07:25:45;;;;;;;13.93;8.75;;;-2.70;77.80;;;;;;5058557;28;20079;-69
2021/01/18 07:28:20;;;;;;;15.38;9.30;;;-2.50;77.70;;;;;;5056731;28;20053;-70
2021/01/18 07:30:46;;;;;;;14.80;9.40;;;-2.40;75.50;;;;;;5057929;28;20068;-69
2021/01/18 07:33:12;;;;;;;14.57;10.20;;;-2.20;74.70;;;;;;5057865;28;20021;-69
2021/01/18 07:35:39;;;;;;;15.77;9.57;;;-2.10;74.60;;;;;;5057735;28;20112;-69
2021/01/18 07:38:25;;;;;;;15.00;9.60;;;-1.90;74.00;;;;;;5057688;28;20032;-69
2021/01/18 07:41:06;;;;;;;13.98;8.85;;;-1.80;73.40;;;;;;5057983;28;20031;-69
2021/01/18 07:43:43;;;;;;;13.07;8.55;;;-1.70;71.50;;;;;;5057869;28;20025;-70
2021/01/18 07:46:28;;;;;;;14.18;9.25;;;-1.60;70.90;;;;;;5057542;28;20371;-69
2021/01/18 07:49:22;;;;;;;16.65;10.30;;;-1.50;71.30;;;;;;5057509;28;20032;-70
2021/01/18 07:51:48;;;;;;;13.55;8.75;;;-1.50;71.90;;;;;;5057698;28;20329;-69
2021/01/18 07:54:41;;;;;;;13.50;8.73;;;-1.40;71.80;;;;;;5057566;28;20025;-69
2021/01/18 07:57:38;;;;;;;15.43;9.57;;;-1.50;74.20;;;;;;5057148;28;20044;-69
2021/01/18 08:00:23;;;;;;;;;;;-1.50;73.30;;;;;;5057082;28;20056;-70
2021/01/18 08:03:18;;;;;;;16.52;9.38;;;-1.50;72.30;;;;;;5057871;28;20186;-69
2021/01/18 08:05:44;;;;;;;14.90;10.05;;;-1.40;70.20;;;;;;5057160;28;20025;-69
2021/01/18 08:08:17;;;;;;;14.05;9.45;;;-1.40;71.10;;;;;;5057222;28;20017;-70
2021/01/18 08:10:52;;;;;;;14.98;10.63;;;-1.40;70.90;;;;;;5057206;28;20041;-70
2021/01/18 08:13:42;;;;;;;13.80;9.20;;;-1.40;71.20;;;;;;5057169;28;20029;-69
2021/01/18 08:16:11;;;;;;;13.85;9.25;;;-1.40;72.30;;;;;;5055948;28;20029;-69
2021/01/18 08:18:56;;;;;;;12.77;9.13;;;-1.40;71.80;;;;;;5057269;28;20031;-69
2021/01/18 08:21:43;;;;;;;14.45;9.40;;;-1.50;72.60;;;;;;5057015;28;20321;-69
2021/01/18 08:24:36;;;;;;;12.23;8.85;;;-1.60;74.00;;;;;;5056931;28;20440;-69
2021/01/18 08:27:10;;;;;;;13.45;8.82;;;-1.70;71.80;;;;;;5056654;28;20081;-69
2021/01/18 08:29:51;;;;;;;13.88;8.93;;;-1.60;70.60;;;;;;5056466;28;20040;-69
2021/01/18 08:32:25;;;;;;;12.88;8.35;;;-1.60;70.70;;;;;;5056826;28;20413;-69
2021/01/18 08:34:53;;;;;;;12.75;7.97;;;-1.50;71.40;;;;;;5056698;28;20090;-70
2021/01/18 08:37:20;;;;;;;14.02;7.72;;;-1.40;71.40;;;;;;5056959;28;20036;-69
2021/01/18 08:39:52;;;;;;;11.45;7.22;;;-1.30;71.50;;;;;;5056649;28;20032;-69
2021/01/18 08:42:28;;;;;;;12.70;7.65;;;-1.10;72.00;;;;;;5056643;28;20021;-69
2021/01/18 08:45:03;;;;;;;10.50;7.45;;;-1.00;71.00;;;;;;5056637;28;20407;-69
2021/01/18 08:47:37;;;;;;;12.73;8.15;;;-0.80;71.30;;;;;;5055611;28;20409;-69
2021/01/18 08:50:19;;;;;;;11.85;7.60;;;-0.60;69.60;;;;;;5056585;28;20029;-70
2021/01/18 08:52:45;;;;;;;11.85;7.80;;;-0.40;66.80;;;;;;5056559;28;20106;-69
2021/01/18 08:55:29;;;;;;;11.48;7.35;;;-0.30;69.70;;;;;;5056798;28;20029;-69
2021/01/18 08:58:01;;;;;;;11.90;7.82;;;-0.20;66.40;;;;;;5056563;28;20040;-69
2021/01/18 09:00:43;;;;;;;10.75;8.13;;;-0.10;64.50;;;;;;5056692;28;20033;-69
2021/01/18 09:03:19;;;;;;;12.38;8.60;;;-0.10;65.00;;;;;;5056748;28;20021;-70
2021/01/18 09:05:47;;;;;;;11.48;7.63;;;0.00;63.40;;;;;;5056551;28;20036;-69
2021/01/18 09:08:15;;;;;;;13.77;8.25;;;0.10;64.00;;;;;;5056705;28;20033;-69
2021/01/18 09:10:50;;;;;;;12.30;8.18;;;0.20;65.60;;;;;;5056665;28;20440;-69
2021/01/18 09:13:19;;;;;;;12.32;8.25;;;0.30;63.80;;;;;;5056453;28;20025;-69
2021/01/18 09:15:44;;;;;;;12.60;8.27;;;0.40;65.20;;;;;;5056379;28;20333;-67
2021/01/18 09:18:11;;;;;;;11.80;8.00;;;0.70;64.90;;;;;;5056483;28;20040;-67
2021/01/18 09:20:39;;;;;;;10.00;7.32;;;1.20;62.00;;;;;;5056407;28;20109;-69
2021/01/18 09:23:07;;;;;;;13.40;8.32;;;1.70;59.10;;;;;;5056299;28;20448;-69
2021/01/18 09:25:34;;;;;;;11.38;8.18;;;2.40;61.20;;;;;;5056720;28;20060;-70
2021/01/18 09:28:04;;;;;;;10.50;7.07;;;2.90;58.60;;;;;;5056177;28;20045;-69
2021/01/18 09:30:30;;;;;;;12.38;8.30;;;3.40;58.40;;;;;;5055157;28;20052;-70
2021/01/18 09:33:04;;;;;;;9.93;6.90;;;3.80;55.20;;;;;;5056167;28;20413;-70
2021/01/18 09:35:32;;;;;;;9.45;6.60;;;3.90;55.20;;;;;;5056191;28;20035;-69
2021/01/18 09:37:58;;;;;;;10.38;7.47;;;3.80;54.70;;;;;;5056166;28;20099;-70
2021/01/18 09:40:25;;;;;;;12.15;8.45;;;3.80;55.20;;;;;;5058120;28;20117;-69
2021/01/18 09:42:56;;;;;;;10.23;8.02;;;3.80;56.80;;;;;;5059926;28;20024;-67
2021/01/18 09:45:23;;;;;;;11.50;8.57;;;4.10;55.40;;;;;;5059957;28;20025;-69
2021/01/18 09:47:49;;;;;;;13.57;8.50;;;4.40;54.20;;;;;;5059857;28;20017;-67
2021/01/18 09:50:18;;;;;;;13.15;8.90;;;4.40;53.40;;;;;;5060067;28;20032;-67
2021/01/18 09:52:46;;;;;;;11.60;8.68;;;4.70;53.30;;;;;;5059750;28;20425;-67
2021/01/18 09:55:20;;;;;;;10.43;8.00;;;5.60;51.10;;;;;;5059859;28;20086;-67
2021/01/18 09:58:09;;;;;;;8.82;6.25;;;6.40;49.90;;;;;;5059950;28;20129;-67
2021/01/18 10:00:40;;;;;;;10.38;7.97;;;7.00;48.40;;;;;;5058586;28;20084;-68
2021/01/18 10:03:07;;;;;;;10.13;7.13;;;7.20;48.40;;;;;;5059582;28;20485;-69
2021/01/18 10:05:38;;;;;;;13.15;7.97;;;7.50;47.50;;;;;;5059559;28;20108;-67
2021/01/18 10:08:13;;;;;;;9.68;7.63;;;7.70;46.70;;;;;;5058871;28;20025;-68
2021/01/18 10:10:47;;;;;;;11.80;8.10;;;7.30;47.70;;;;;;5047898;28;20087;-67
2021/01/18 10:13:17;;;;;;;9.57;7.70;;;6.80;48.40;;;;;;5058059;28;20086;-67
2021/01/18 10:15:43;;;;;;;12.02;7.68;;;6.50;48.40;;;;;;5059305;28;20029;-67
2021/01/18 10:18:37;;;;;;;11.77;8.60;;;6.30;49.50;;;;;;5059193;28;20417;-67
2021/01/18 10:21:03;;;;;;;11.15;7.97;;;6.00;50.00;;;;;;5059174;28;20024;-67
2021/01/18 10:23:39;;;;;;;11.27;7.78;;;5.70;50.10;;;;;;5059451;28;20013;-67
2021/01/18 10:26:20;;;;;;;;;;;5.70;50.30;;;;;;5060012;28;20086;-69
2021/01/18 10:28:52;;;;;;;14.82;8.30;;;5.80;52.00;;;;;;5059158;28;19920;-67
2021/01/18 10:31:19;;;;;;;13.00;8.10;;;6.30;49.80;;;;;;5059214;28;20025;-67
2021/01/18 10:33:45;;;;;;;10.40;7.95;;;6.40;50.00;;;;;;5058992;28;20029;-69
2021/01/18 10:36:31;;;;;;;10.00;6.93;;;6.20;49.90;;;;;;5058928;28;20111;-67
2021/01/18 10:38:56;;;;;;;9.52;7.43;;;6.30;48.60;;;;;;5059094;28;20088;-69
2021/01/18 10:41:23;;;;;;;10.32;7.78;;;6.20;50.20;;;;;;5058868;28;20108;-70
2021/01/18 10:43:49;;;;;;;11.35;8.85;;;6.20;49.80;;;;;;5058785;28;20024;-67
2021/01/18 10:46:16;;;;;;;9.27;7.55;;;6.70;48.90;;;;;;5058655;28;20320;-69
2021/01/18 10:48:42;;;;;;;9.10;7.65;;;6.60;47.30;;;;;;5059101;28;20048;-67
2021/01/18 10:51:08;;;;;;;10.48;7.85;;;6.40;49.30;;;;;;5057825;28;20417;-67
2021/01/18 10:53:34;;;;;;;10.43;8.23;;;6.30;49.10;;;;;;5058575;28;20025;-69
2021/01/18 10:56:14;;;;;;;9.43;6.78;;;6.80;48.00;;;;;;5059154;28;20385;-70
2021/01/18 10:58:40;;;;;;;12.68;8.48;;;7.90;47.40;;;;;;5058562;28;20091;-70
2021/01/18 11:01:13;;;;;;;12.23;8.50;;;8.80;45.40;;;;;;5058481;28;20029;-70
2021/01/18 11:03:40;;;;;;;11.20;8.30;;;9.10;43.20;;;;;;5058602;28;20075;-67
2021/01/18 11:06:14;;;;;;;12.52;8.48;;;9.60;44.90;;;;;;5058373;28;20056;-68
2021/01/18 11:08:41;;;;;;;11.15;8.57;;;9.90;43.30;;;;;;5058700;28;20029;-68
2021/01/18 11:11:21;;;;;;;12.05;9.05;;;10.20;42.90;;;;;;5058305;28;20048;-68
2021/01/18 11:13:48;;;;;;;12.07;8.88;;;10.10;43.70;;;;;;5058392;28;20028;-68
2021/01/18 11:16:16;;;;;;;12.38;8.10;;;10.20;42.60;;;;;;5058195;28;20067;-68
2021/01/18 11:18:43;;;;;;;9.93;7.35;;;10.30;41.70;;;;;;5056979;28;20021;-68
2021/01/18 11:21:09;;;;;;;7.63;6.30;;;10.30;41.90;;;;;;5058092;28;20025;-67
2021/01/18 11:23:35;;;;;;;10.48;7.35;;;10.20;41.70;;;;;;5058030;28;20021;-67
2021/01/18 11:26:00;;;;;;;9.13;7.45;;;10.00;42.20;;;;;;5058354;28;20028;-68
2021/01/18 11:28:26;;;;;;;11.13;7.40;;;9.90;43.30;;;;;;5056748;28;20467;-68
2021/01/18 11:30:52;;;;;;;10.82;7.43;;;9.60;43.40;;;;;;5057843;28;20036;-68
2021/01/18 11:33:19;;;;;;;9.35;6.70;;;9.70;42.80;;;;;;5057849;28;20025;-68
2021/01/18 11:35:47;;;;;;;9.70;7.45;;;9.80;43.00;;;;;;5058047;28;20059;-67
2021/01/18 11:38:13;;;;;;;9.82;7.25;;;9.90;42.70;;;;;;5057991;28;20098;-68
2021/01/18 11:40:40;;;;;;;10.25;7.07;;;10.00;42.10;;;;;;5057735;28;20320;-68
2021/01/18 11:43:05;;;;;;;8.25;6.50;;;10.00;43.30;;;;;;5057797;28;20448;-68
2021/01/18 11:45:31;;;;;;;10.57;6.32;;;10.00;43.50;;;;;;5057677;28;20061;-67
2021/01/18 11:47:57;;;;;;;9.15;6.97;;;9.90;42.30;;;;;;5057609;28;20062;-68
2021/01/18 11:50:23;;;;;;;7.78;6.65;;;9.60;43.00;;;;;;5057522;28;20029;-68
2021/01/18 11:52:54;;;;;;;9.48;7.10;;;9.60;44.10;;;;;;5057463;28;20063;-67
2021/01/18 11:55:20;;;;;;;10.80;7.45;;;9.40;43.70;;;;;;5057831;28;20056;-68
2021/01/18 11:57:48;;;;;;;9.50;7.50;;;9.70;42.10;;;;;;5057500;28;20112;-68
2021/01/18 12:00:25;;;;;;;11.15;7.20;;;9.80;43.90;;;;;;5057342;28;20025;-67
2021/01/18 12:02:55;;;;;;;9.88;8.00;;;9.90;42.10;;;;;;5057531;28;20409;-68
2021/01/18 12:05:25;;;;;;;10.82;7.40;;;9.80;43.60;;;;;;5057233;28;20025;-67
2021/01/18 12:08:03;;;;;;;10.32;7.85;;;9.80;44.70;;;;;;5057255;28;20100;-68
2021/01/18 12:10:30;;;;;;;13.85;8.60;;;9.60;42.60;;;;;;5057152;28;20425;-67
2021/01/18 12:12:56;;;;;;;12.20;8.30;;;9.50;43.30;;;;;;5057084;28;20025;-67
2021/01/18 12:15:22;;;;;;;12.52;8.05;;;9.40;43.90;;;;;;5057264;28;20123;-69
2021/01/18 12:17:48;;;;;;;11.90;8.75;;;9.20;45.10;;;;;;5056993;28;20029;-67
2021/01/18 12:20:17;;;;;;;9.63;7.68;;;9.00;44.90;;;;;;5056999;28;20025;-67
2021/01/18 12:22:43;;;;;;;10.52;8.38;;;8.80;44.30;;;;;;5056957;28;20091;-67
2021/01/18 12:25:09;;;;;;;11.65;8.52;;;8.70;44.90;;;;;;5057316;28;20060;-69
2021/01/18 12:27:35;;;;;;;10.07;8.13;;;8.90;45.70;;;;;;5056724;28;20053;-69
2021/01/18 12:30:01;;;;;;;16.00;9.38;;;8.60;45.10;;;;;;5056857;28;20021;-70
2021/01/18 12:32:27;;;;;;;13.07;9.20;;;8.60;44.90;;;;;;5057093;28;20035;-67
2021/01/18 12:34:53;;;;;;;13.35;10.05;;;8.80;45.10;;;;;;5056994;28;20397;-68
2021/01/18 12:37:19;;;;;;;12.77;10.57;;;8.80;45.60;;;;;;5056714;28;20286;-69
2021/01/18 12:39:45;;;;;;;13.68;9.25;;;8.50;46.80;;;;;;5056893;28;20032;-67
2021/01/18 12:42:10;;;;;;;12.88;9.23;;;8.10;46.70;;;;;;5056966;28;20049;-67
2021/01/18 12:44:37;;;;;;;12.35;9.60;;;7.80;46.40;;;;;;5056608;28;20029;-67
2021/01/18 12:47:04;;;;;;;14.80;10.73;;;7.90;48.40;;;;;;5057002;28;20017;-67
2021/01/18 12:49:31;;;;;;;16.70;10.32;;;7.90;47.80;;;;;;5056603;28;20039;-67
2021/01/18 12:51:56;;;;;;;13.18;10.20;;;7.90;47.40;;;;;;5056734;28;20025;-67
2021/01/18 12:54:23;;;;;;;15.88;11.10;;;7.90;48.00;;;;;;5056666;28;20032;-67
2021/01/18 12:56:52;;;;;;;14.55;10.05;;;7.90;48.90;;;;;;5056625;28;20115;-67
2021/01/18 12:59:18;;;;;;;16.20;10.88;;;7.70;48.20;;;;;;5056390;28;20036;-68
2021/01/18 13:01:44;;;;;;;16.70;11.55;;;7.40;50.60;;;;;;5056581;28;20413;-68